Time;durP1;ratioP1;P1;durP2;ratioP2;P2;SDS_P1;SDS_P2;PMS_P1;PMS_P2;Temp;Humidity;BMP_temperature;BMP_pressure;BME280_temperature;BME280_humidity;BME280_pressure;Samples;Min_cycle;Max_cycle;Signal;HPM_P1;HPM_P2
2023/01/22 00:01:24;;;;;;;;;;;-0.50;99.90;;;;;;8389192;28;19928;-73
2023/01/22 00:05:25;;;;;;;;;;;-0.50;99.90;;;;;;8393900;28;19974;-73
2023/01/22 00:09:27;;;;;;;;;;;-0.50;99.90;;;;;;8400286;28;19935;-73
2023/01/22 00:13:28;;;;;;;;;;;-0.60;99.90;;;;;;8382179;28;19967;-72
2023/01/22 00:17:30;;;;;;;;;;;-0.60;99.90;;;;;;8388257;28;19978;-72
2023/01/22 00:21:33;;;;;;;;;;;-0.60;99.90;;;;;;8376395;28;20019;-72
2023/01/22 00:25:34;;;;;;;;;;;-0.50;99.90;;;;;;8410722;28;19924;-72
2023/01/22 00:29:36;;;;;;;;;;;-0.50;99.90;;;;;;8378097;28;19930;-72
2023/01/22 00:33:38;;;;;;;;;;;-0.50;99.90;;;;;;8400509;28;19979;-72
2023/01/22 00:37:39;;;;;;;;;;;-0.50;99.90;;;;;;8371080;28;19940;-72
2023/01/22 00:41:41;;;;;;;;;;;-0.50;99.90;;;;;;8405368;28;19971;-73
2023/01/22 00:45:43;;;;;;;;;;;-0.50;99.90;;;;;;8379045;28;21282;-72
2023/01/22 00:49:44;;;;;;;;;;;-0.50;99.90;;;;;;8416036;28;19932;-72
2023/01/22 00:53:46;;;;;;;;;;;-0.40;99.90;;;;;;8387597;28;19924;-72
2023/01/22 00:57:48;;;;;;;;;;;-0.50;99.90;;;;;;8400186;28;19932;-72
2023/01/22 01:01:49;;;;;;;;;;;-0.50;99.90;;;;;;8396178;28;20712;-72
2023/01/22 01:05:55;;;;;;;;;;;-0.50;99.90;;;;;;8402429;28;19924;-72
2023/01/22 01:09:56;;;;;;;;;;;-0.60;99.90;;;;;;8399512;28;19925;-73
2023/01/22 01:13:58;;;;;;;;;;;-0.60;99.90;;;;;;8383714;28;19931;-72
2023/01/22 01:17:59;;;;;;;;;;;-0.70;99.90;;;;;;8400924;28;19925;-72
2023/01/22 01:22:01;;;;;;;;;;;-0.70;99.90;;;;;;8394122;28;20015;-72
2023/01/22 01:26:03;;;;;;;;;;;-0.70;99.90;;;;;;8385336;28;20289;-72
2023/01/22 01:30:05;;;;;;;;;;;-0.80;99.90;;;;;;8387586;28;19932;-72
2023/01/22 01:34:07;;;;;;;;;;;-0.80;99.90;;;;;;8394843;28;19986;-72
2023/01/22 01:38:09;;;;;;;;;;;-0.80;99.90;;;;;;8391705;28;19938;-72
2023/01/22 01:42:10;;;;;;;;;;;-0.80;99.90;;;;;;8396594;28;19931;-72
2023/01/22 01:46:21;;;;;;;;;;;-0.80;99.90;;;;;;8379664;28;20035;-72
2023/01/22 01:50:25;;;;;;;;;;;-0.80;99.90;;;;;;8386511;28;19936;-72
2023/01/22 01:54:27;;;;;;;;;;;-0.80;99.90;;;;;;8411972;28;19937;-72
2023/01/22 01:58:30;;;;;;;;;;;-0.80;99.90;;;;;;8411006;28;19925;-72
2023/01/22 02:02:32;;;;;;;;;;;-0.90;99.90;;;;;;8389576;28;19925;-72
2023/01/22 02:06:33;;;;;;;;;;;-0.90;99.90;;;;;;8386464;28;20035;-72
2023/01/22 02:10:36;;;;;;;;;;;-0.90;99.90;;;;;;8399388;28;19964;-72
2023/01/22 02:14:38;;;;;;;;;;;-0.90;99.90;;;;;;8385287;28;20408;-72
2023/01/22 02:18:43;;;;;;;;;;;-0.90;99.90;;;;;;8370042;28;20380;-72
2023/01/22 02:22:45;;;;;;;;;;;-0.90;99.90;;;;;;8394199;28;20319;-72
2023/01/22 02:26:46;;;;;;;;;;;-0.90;99.90;;;;;;8407152;28;20292;-72
2023/01/22 02:30:48;;;;;;;;;;;-0.90;99.90;;;;;;8402623;28;19934;-72
2023/01/22 02:34:50;;;;;;;;;;;-0.90;99.90;;;;;;8393237;28;19924;-72
2023/01/22 02:38:52;;;;;;;;;;;-0.90;99.90;;;;;;8396362;28;20019;-72
2023/01/22 02:42:53;;;;;;;;;;;-0.90;99.90;;;;;;8394107;28;19924;-72
2023/01/22 02:46:55;;;;;;;;;;;-0.90;99.90;;;;;;8377406;28;19983;-72
2023/01/22 02:50:57;;;;;;;;;;;-0.90;99.90;;;;;;8386960;28;19925;-72
2023/01/22 02:54:58;;;;;;;;;;;-0.90;99.90;;;;;;8385639;28;19986;-72
2023/01/22 02:59:03;;;;;;;;;;;-0.90;99.90;;;;;;8396047;28;19971;-72
2023/01/22 03:03:06;;;;;;;;;;;-0.90;99.90;;;;;;8391392;28;19936;-72
2023/01/22 03:07:08;;;;;;;;;;;-0.90;99.90;;;;;;8380146;28;20368;-72
2023/01/22 03:11:10;;;;;;;;;;;-0.90;99.90;;;;;;8380109;28;20288;-72
2023/01/22 03:23:53;;;;;;;;;;;-0.90;99.90;;;;;;8387758;28;19980;-72
2023/01/22 03:28:17;;;;;;;;;;;-0.90;99.90;;;;;;8377926;28;20299;-72
2023/01/22 03:32:19;;;;;;;;;;;-0.90;99.90;;;;;;8409229;28;20387;-72
2023/01/22 03:36:21;;;;;;;;;;;-0.90;99.90;;;;;;8389988;28;19928;-72
2023/01/22 03:40:22;;;;;;;;;;;-0.90;99.90;;;;;;8387494;28;19928;-72
2023/01/22 03:44:24;;;;;;;;;;;-0.90;99.90;;;;;;8377754;28;20016;-72
2023/01/22 03:48:26;;;;;;;;;;;-0.80;99.90;;;;;;8374961;28;20012;-72
2023/01/22 03:52:27;;;;;;;;;;;-0.80;99.90;;;;;;8383329;28;20015;-72
2023/01/22 03:56:30;;;;;;;;;;;-0.80;99.90;;;;;;8393649;28;19975;-72
2023/01/22 04:00:31;;;;;;;;;;;-0.80;99.90;;;;;;8409925;28;19928;-72
2023/01/22 04:04:33;;;;;;;;;;;-0.80;99.90;;;;;;8386979;28;21723;-72
2023/01/22 04:08:35;;;;;;;;;;;-0.80;99.90;;;;;;8387176;28;20418;-72
2023/01/22 04:12:37;;;;;;;;;;;-0.80;99.90;;;;;;8374945;28;20302;-72
2023/01/22 04:16:39;;;;;;;;;;;-0.80;99.90;;;;;;8405709;28;19928;-72
2023/01/22 04:20:40;;;;;;;;;;;-0.90;99.90;;;;;;8377388;28;19931;-72
2023/01/22 04:24:42;;;;;;;;;;;-0.90;99.90;;;;;;8386382;28;19939;-72
2023/01/22 04:28:44;;;;;;;;;;;-0.80;99.90;;;;;;8387521;28;19947;-72
2023/01/22 04:32:45;;;;;;;;;;;-0.80;99.90;;;;;;8385429;28;19975;-72
2023/01/22 04:36:47;;;;;;;;;;;-0.80;99.90;;;;;;8392782;28;19928;-72
2023/01/22 04:40:48;;;;;;;;;;;-0.80;99.90;;;;;;8389199;28;20372;-72
2023/01/22 04:44:50;;;;;;;;;;;-0.80;99.90;;;;;;8365215;28;20417;-72
2023/01/22 04:48:52;;;;;;;;;;;-0.80;99.90;;;;;;8369550;28;20283;-72
2023/01/22 04:52:54;;;;;;;;;;;-0.70;99.90;;;;;;8394568;28;20039;-72
2023/01/22 04:56:56;;;;;;;;;;;-0.70;99.90;;;;;;8390513;28;20351;-72
2023/01/22 05:00:58;;;;;;;;;;;-0.60;99.90;;;;;;8419674;28;19924;-72
2023/01/22 05:04:59;;;;;;;;;;;-0.50;99.90;;;;;;8393583;28;19924;-72
2023/01/22 05:09:01;;;;;;;;;;;-0.50;99.90;;;;;;8393997;28;19947;-72
2023/01/22 05:13:04;;;;;;;;;;;-0.40;99.90;;;;;;8378911;28;20427;-72
2023/01/22 05:17:05;;;;;;;;;;;-0.40;99.90;;;;;;8389721;28;20306;-72
2023/01/22 05:21:07;;;;;;;;;;;-0.20;99.90;;;;;;8378393;28;19947;-72
2023/01/22 05:25:08;;;;;;;;;;;-0.20;99.90;;;;;;8390411;28;19928;-72
2023/01/22 05:29:10;;;;;;;;;;;-0.10;99.90;;;;;;8390357;28;19924;-72
2023/01/22 05:33:12;;;;;;;;;;;0.00;99.90;;;;;;8390094;28;19924;-72
2023/01/22 05:37:13;;;;;;;;;;;0.00;99.90;;;;;;8388981;28;19936;-72
2023/01/22 05:41:15;;;;;;;;;;;0.10;99.90;;;;;;8390392;28;19935;-72
2023/01/22 05:45:17;;;;;;;;;;;0.10;99.90;;;;;;8388800;28;19955;-72
2023/01/22 05:49:18;;;;;;;;;;;0.10;99.90;;;;;;8382700;28;20308;-72
2023/01/22 05:53:20;;;;;;;;;;;0.20;99.90;;;;;;8362814;28;20383;-72
2023/01/22 05:57:21;;;;;;;;;;;0.20;99.90;;;;;;8389724;28;19943;-72
2023/01/22 06:01:23;;;;;;;;;;;0.20;99.90;;;;;;8369521;28;19940;-72
2023/01/22 06:05:25;;;;;;;;;;;0.20;99.90;;;;;;8375990;28;19938;-72
2023/01/22 06:09:27;;;;;;;;;;;0.20;99.90;;;;;;8377005;28;19924;-72
2023/01/22 06:13:29;;;;;;;;;;;0.30;99.90;;;;;;8385827;28;20026;-72
2023/01/22 06:17:30;;;;;;;;;;;0.30;99.90;;;;;;8392479;28;20394;-72
2023/01/22 06:21:32;;;;;;;;;;;0.30;99.90;;;;;;8389827;28;19924;-72
2023/01/22 06:25:34;;;;;;;;;;;0.30;99.90;;;;;;8402327;28;20687;-72
2023/01/22 06:29:35;;;;;;;;;;;0.30;99.90;;;;;;8371834;28;20307;-72
2023/01/22 06:33:40;;;;;;;;;;;0.30;99.90;;;;;;8378143;28;19952;-72
2023/01/22 06:37:42;;;;;;;;;;;0.30;99.90;;;;;;8395686;28;19976;-72
2023/01/22 06:41:45;;;;;;;;;;;0.30;99.90;;;;;;8389930;28;20030;-73
2023/01/22 06:45:47;;;;;;;;;;;0.30;99.90;;;;;;8386779;28;19924;-72
2023/01/22 06:49:48;;;;;;;;;;;0.30;99.90;;;;;;8397790;28;19972;-72
2023/01/22 06:53:50;;;;;;;;;;;0.30;99.90;;;;;;8404685;28;20002;-72
2023/01/22 06:57:55;;;;;;;;;;;0.30;99.90;;;;;;8403445;28;20388;-72
2023/01/22 07:01:56;;;;;;;;;;;0.30;99.90;;;;;;8387495;28;19924;-72
2023/01/22 07:05:59;;;;;;;;;;;0.30;99.90;;;;;;8391335;28;19925;-72
2023/01/22 07:10:01;;;;;;;;;;;0.30;99.90;;;;;;8391837;28;19924;-72
2023/01/22 07:14:02;;;;;;;;;;;0.30;99.90;;;;;;8393604;28;19936;-72
2023/01/22 07:18:04;;;;;;;;;;;0.30;99.90;;;;;;8399374;28;19931;-72
2023/01/22 07:22:06;;;;;;;;;;;0.30;99.90;;;;;;8405218;28;20407;-72
2023/01/22 07:26:07;;;;;;;;;;;0.40;99.90;;;;;;8389182;28;20036;-72
2023/01/22 07:30:10;;;;;;;;;;;0.30;99.90;;;;;;8387175;28;20489;-71
2023/01/22 07:34:12;;;;;;;;;;;0.30;99.90;;;;;;8380575;28;19924;-72
2023/01/22 07:38:13;;;;;;;;;;;0.30;99.90;;;;;;8387549;28;20014;-72
2023/01/22 07:42:15;;;;;;;;;;;0.30;99.90;;;;;;8389352;28;19935;-72
2023/01/22 07:46:16;;;;;;;;;;;0.30;99.90;;;;;;8387280;28;19940;-74
2023/01/22 07:50:19;;;;;;;;;;;0.40;99.90;;;;;;8389923;28;19971;-72
2023/01/22 07:54:20;;;;;;;;;;;0.30;99.90;;;;;;8373564;28;19935;-72
2023/01/22 07:58:22;;;;;;;;;;;0.40;99.90;;;;;;8391301;28;19932;-72
2023/01/22 08:02:24;;;;;;;;;;;0.40;99.90;;;;;;8389086;28;19928;-72
2023/01/22 08:06:25;;;;;;;;;;;0.40;99.90;;;;;;8394278;28;19964;-72
2023/01/22 08:10:27;;;;;;;;;;;0.40;99.90;;;;;;8391759;28;20380;-72
2023/01/22 08:14:29;;;;;;;;;;;0.30;99.90;;;;;;8387329;28;19928;-72
2023/01/22 08:18:30;;;;;;;;;;;0.30;99.90;;;;;;8394496;28;19947;-72
2023/01/22 08:22:32;;;;;;;;;;;0.30;99.90;;;;;;8391917;28;20024;-72
2023/01/22 08:26:33;;;;;;;;;;;0.20;99.90;;;;;;8381749;28;19967;-72
2023/01/22 08:30:35;;;;;;;;;;;0.20;99.90;;;;;;8364861;28;19993;-72
2023/01/22 08:34:46;;;;;;;;;;;0.20;99.90;;;;;;8406848;28;19974;-72
2023/01/22 08:38:47;;;;;;;;;;;0.30;99.90;;;;;;8399766;28;19934;-72
2023/01/22 08:42:50;;;;;;;;;;;0.30;99.90;;;;;;8393473;28;20367;-72
2023/01/22 08:46:51;;;;;;;;;;;0.30;99.90;;;;;;8383243;28;20020;-72
2023/01/22 08:50:53;;;;;;;;;;;0.40;99.90;;;;;;8394373;28;19924;-72
2023/01/22 08:54:55;;;;;;;;;;;0.40;99.90;;;;;;8397161;28;19924;-72
2023/01/22 08:58:59;;;;;;;;;;;0.50;99.90;;;;;;8387579;28;19935;-72
2023/01/22 09:03:00;;;;;;;;;;;0.50;99.90;;;;;;8388464;28;19931;-72
2023/01/22 09:07:02;;;;;;;;;;;0.60;99.90;;;;;;8394745;28;19935;-72
2023/01/22 09:11:04;;;;;;;;;;;0.70;99.90;;;;;;8394586;28;19924;-72
2023/01/22 09:15:06;;;;;;;;;;;0.70;99.90;;;;;;8385660;28;20027;-72
2023/01/22 09:19:09;;;;;;;;;;;0.80;99.90;;;;;;8394872;28;19928;-72
2023/01/22 09:23:10;;;;;;;;;;;0.80;99.90;;;;;;8391800;28;19924;-72
2023/01/22 09:27:15;;;;;;;;;;;0.90;99.90;;;;;;8397997;28;19925;-72
2023/01/22 09:31:17;;;;;;;;;;;0.90;99.90;;;;;;8375222;28;19967;-72
2023/01/22 09:35:18;;;;;;;;;;;1.10;99.90;;;;;;8373588;28;19994;-72
2023/01/22 09:39:20;;;;;;;;;;;1.10;99.90;;;;;;8409706;28;20323;-72
2023/01/22 09:43:41;;;;;;;;;;;1.20;99.90;;;;;;8385158;28;19964;-72
2023/01/22 09:47:47;;;;;;;;;;;1.20;99.90;;;;;;8389293;28;20291;-72
2023/01/22 09:51:59;;;;;;;;;;;1.30;99.90;;;;;;8402659;28;19983;-72
2023/01/22 09:56:03;;;;;;;;;;;1.30;99.90;;;;;;8402652;28;20020;-72
2023/01/22 10:00:12;;;;;;;;;;;1.40;99.90;;;;;;8397785;28;19928;-72
2023/01/22 10:04:26;;;;;;;;;;;1.40;99.90;;;;;;8387062;28;20284;-72
2023/01/22 10:08:31;;;;;;;;;;;1.40;99.90;;;;;;8380432;28;19930;-72
2023/01/22 10:12:33;;;;;;;;;;;1.50;99.90;;;;;;8384074;28;19939;-72
2023/01/22 10:16:35;;;;;;;;;;;1.50;99.90;;;;;;8391612;28;19990;-72
2023/01/22 10:20:37;;;;;;;;;;;1.50;99.90;;;;;;8395396;28;20014;-72
2023/01/22 10:24:39;;;;;;;;;;;1.60;99.90;;;;;;8403510;28;19924;-72
2023/01/22 10:28:48;;;;;;;;;;;1.60;99.90;;;;;;8400174;28;20044;-72
2023/01/22 10:33:03;;;;;;;;;;;1.60;99.90;;;;;;8388141;28;19931;-72
2023/01/22 10:37:15;;;;;;;;;;;1.60;99.90;;;;;;8395597;28;20356;-72
2023/01/22 10:41:16;;;;;;;;;;;1.60;99.90;;;;;;8387541;28;19984;-72
2023/01/22 10:45:18;;;;;;;;;;;1.60;99.90;;;;;;8393968;28;20367;-72
2023/01/22 10:49:21;;;;;;;;;;;1.60;99.90;;;;;;8381849;28;19928;-72
2023/01/22 10:53:27;;;;;;;;;;;1.60;99.90;;;;;;8383393;28;19967;-72
2023/01/22 10:57:32;;;;;;;;;;;1.60;99.90;;;;;;8362808;28;19976;-72
2023/01/22 11:01:35;;;;;;;;;;;1.50;99.90;;;;;;8409299;28;20308;-72
2023/01/22 11:05:36;;;;;;;;;;;1.60;99.90;;;;;;8375417;28;20361;-72
2023/01/22 11:09:40;;;;;;;;;;;1.60;99.90;;;;;;8400998;28;19928;-72
2023/01/22 11:13:53;;;;;;;;;;;1.60;99.90;;;;;;8386540;28;19947;-72
2023/01/22 11:17:56;;;;;;;;;;;1.60;99.90;;;;;;8388700;28;19975;-72
2023/01/22 11:21:58;;;;;;;;;;;1.70;99.90;;;;;;8392914;28;19924;-72
2023/01/22 11:26:20;;;;;;;;;;;1.70;99.90;;;;;;8406398;28;20014;-72
2023/01/22 11:30:22;;;;;;;;;;;1.70;99.90;;;;;;8396698;28;19924;-72
2023/01/22 11:34:34;;;;;;;;;;;1.80;99.90;;;;;;8401348;28;19925;-72
2023/01/22 11:38:50;;;;;;;;;;;1.80;99.90;;;;;;8395125;28;19931;-72
2023/01/22 11:43:10;;;;;;;;;;;1.90;99.90;;;;;;8383606;28;20371;-73
2023/01/22 11:47:15;;;;;;;;;;;1.90;99.90;;;;;;8394350;28;19925;-73
2023/01/22 11:51:38;;;;;;;;;;;2.00;99.90;;;;;;8390375;28;19968;-73
2023/01/22 11:56:03;;;;;;;;;;;2.10;99.90;;;;;;8386181;28;19954;-73
2023/01/22 12:00:22;;;;;;;;;;;2.10;99.90;;;;;;8385083;28;20407;-73
2023/01/22 12:04:54;;;;;;;;;;;2.10;99.90;;;;;;8372142;28;19979;-73
2023/01/22 12:08:55;;;;;;;;;;;2.10;99.90;;;;;;8352852;28;19929;-73
2023/01/22 12:13:17;;;;;;;;;;;2.10;99.90;;;;;;8399182;28;19928;-73
2023/01/22 12:17:31;;;;;;;;;;;2.10;99.90;;;;;;8375874;28;19925;-73
2023/01/22 12:21:51;;;;;;;;;;;2.10;99.90;;;;;;8370535;28;19971;-73
2023/01/22 12:36:01;;;;;;;;;;;2.10;99.90;;;;;;8379804;28;19919;-73
2023/01/22 12:40:02;;;;;;;;;;;2.00;99.90;;;;;;8384877;28;19946;-73
2023/01/22 12:44:19;;;;;;;;;;;2.00;99.90;;;;;;8381289;28;19928;-73
2023/01/22 12:48:24;;;;;;;;;;;2.00;99.90;;;;;;8383883;28;19991;-73
2023/01/22 12:52:27;;;;;;;;;;;1.90;99.90;;;;;;8398409;28;20402;-73
2023/01/22 12:56:30;;;;;;;;;;;2.00;99.90;;;;;;8384287;28;19925;-73
2023/01/22 13:00:37;;;;;;;;;;;2.00;99.90;;;;;;8395419;28;19929;-73
2023/01/22 13:04:39;;;;;;;;;;;2.00;99.90;;;;;;8403697;28;21183;-74
2023/01/22 13:08:41;;;;;;;;;;;2.10;99.90;;;;;;8392978;28;19971;-73
2023/01/22 13:12:48;;;;;;;;;;;2.10;99.90;;;;;;8397539;28;19924;-73
2023/01/22 13:16:55;;;;;;;;;;;2.20;99.90;;;;;;8407393;28;19935;-73
2023/01/22 13:21:05;;;;;;;;;;;2.30;99.90;;;;;;8392531;28;20016;-73
2023/01/22 13:25:20;;;;;;;;;;;2.40;99.90;;;;;;8370477;28;19963;-73
2023/01/22 13:29:24;;;;;;;;;;;2.50;99.90;;;;;;8381903;28;19928;-73
2023/01/22 13:33:28;;;;;;;;;;;2.60;99.90;;;;;;8369267;28;19939;-73
2023/01/22 13:37:30;;;;;;;;;;;2.60;99.90;;;;;;8402244;28;19925;-73
2023/01/22 13:41:33;;;;;;;;;;;2.60;99.90;;;;;;8373975;28;19947;-73
2023/01/22 13:45:38;;;;;;;;;;;2.60;99.90;;;;;;8380179;28;19946;-73
2023/01/22 13:49:41;;;;;;;;;;;2.50;99.90;;;;;;8407189;28;19924;-74
2023/01/22 13:53:44;;;;;;;;;;;2.50;99.90;;;;;;8390993;28;20388;-73
2023/01/22 13:57:48;;;;;;;;;;;2.50;99.90;;;;;;8383339;28;19931;-73
2023/01/22 14:01:50;;;;;;;;;;;2.50;99.90;;;;;;8401691;28;19935;-73
2023/01/22 14:06:09;;;;;;;;;;;2.50;99.90;;;;;;8374629;28;19929;-73
2023/01/22 14:10:15;;;;;;;;;;;2.40;99.90;;;;;;8397263;28;21325;-73
2023/01/22 14:14:18;;;;;;;;;;;2.40;99.90;;;;;;8384579;28;19972;-73
2023/01/22 14:18:20;;;;;;;;;;;2.40;99.90;;;;;;8399177;28;20292;-73
2023/01/22 14:22:22;;;;;;;;;;;2.40;99.90;;;;;;8394444;28;19931;-73
2023/01/22 14:26:24;;;;;;;;;;;2.40;99.90;;;;;;8378884;28;20337;-73
2023/01/22 14:30:25;;;;;;;;;;;2.40;99.90;;;;;;8372336;28;19932;-73
2023/01/22 14:34:27;;;;;;;;;;;2.40;99.90;;;;;;8359755;28;19936;-73
2023/01/22 14:38:29;;;;;;;;;;;2.30;99.90;;;;;;8367917;28;19932;-73
2023/01/22 14:42:30;;;;;;;;;;;2.30;99.90;;;;;;8386754;28;19936;-73
2023/01/22 14:46:32;;;;;;;;;;;2.40;99.90;;;;;;8383911;28;19975;-73
2023/01/22 14:50:34;;;;;;;;;;;2.40;99.90;;;;;;8371080;28;19956;-73
2023/01/22 14:54:35;;;;;;;;;;;2.40;99.90;;;;;;8384043;28;20331;-73
2023/01/22 14:58:37;;;;;;;;;;;2.40;99.90;;;;;;8352394;28;19933;-73
2023/01/22 15:02:40;;;;;;;;;;;2.30;99.90;;;;;;8371809;28;20365;-73
2023/01/22 15:06:42;;;;;;;;;;;2.30;99.90;;;;;;8371840;28;19925;-73
2023/01/22 15:10:44;;;;;;;;;;;2.20;99.90;;;;;;8369405;28;20015;-73
2023/01/22 15:14:45;;;;;;;;;;;2.20;99.90;;;;;;8362826;28;20332;-73
2023/01/22 15:18:47;;;;;;;;;;;2.20;99.90;;;;;;8356462;28;19928;-73
2023/01/22 15:22:49;;;;;;;;;;;2.10;99.90;;;;;;8392764;28;19940;-73
2023/01/22 15:26:51;;;;;;;;;;;2.10;99.90;;;;;;8388277;28;19990;-73
2023/01/22 15:30:55;;;;;;;;;;;2.10;99.90;;;;;;8370785;28;20005;-73
2023/01/22 15:34:57;;;;;;;;;;;2.10;99.90;;;;;;8383377;28;19968;-73
2023/01/22 15:38:58;;;;;;;;;;;2.10;99.90;;;;;;8369603;28;19933;-73
2023/01/22 15:43:00;;;;;;;;;;;2.20;99.90;;;;;;8385530;28;19971;-73
2023/01/22 15:47:04;;;;;;;;;;;2.10;99.90;;;;;;8367308;28;19928;-73
2023/01/22 15:51:09;;;;;;;;;;;2.10;99.90;;;;;;8364217;28;19925;-73
2023/01/22 15:55:11;;;;;;;;;;;2.10;99.90;;;;;;8373224;28;19925;-73
2023/01/22 16:04:17;;;;;;;;;;;2.10;99.90;;;;;;8369655;28;20369;-73
2023/01/22 16:08:19;;;;;;;;;;;2.10;99.90;;;;;;8347945;28;19968;-73
2023/01/22 16:12:20;;;;;;;;;;;2.10;99.90;;;;;;8380916;28;19960;-73
2023/01/22 16:16:30;;;;;;;;;;;2.10;99.90;;;;;;8366400;28;19967;-73
2023/01/22 16:20:31;;;;;;;;;;;2.10;99.90;;;;;;8371023;28;19925;-73
2023/01/22 16:24:33;;;;;;;;;;;2.10;99.90;;;;;;8348839;28;19925;-73
2023/01/22 16:28:35;;;;;;;;;;;2.10;99.90;;;;;;8350193;28;19932;-73
2023/01/22 16:32:41;;;;;;;;;;;2.10;99.90;;;;;;8363617;28;19932;-73
2023/01/22 16:36:43;;;;;;;;;;;2.10;99.90;;;;;;8378389;28;19936;-73
2023/01/22 16:40:45;;;;;;;;;;;2.10;99.90;;;;;;8369222;28;19936;-72
2023/01/22 16:44:46;;;;;;;;;;;2.10;99.90;;;;;;8370673;28;19935;-73
2023/01/22 16:48:53;;;;;;;;;;;2.10;99.90;;;;;;8369011;28;20485;-73
2023/01/22 16:52:55;;;;;;;;;;;2.10;99.90;;;;;;8356275;28;19952;-73
2023/01/22 16:57:02;;;;;;;;;;;2.10;99.90;;;;;;8388293;28;20031;-73
2023/01/22 17:06:14;;;;;;;;;;;2.10;99.90;;;;;;8368806;28;19975;-73
2023/01/22 17:10:15;;;;;;;;;;;2.10;99.90;;;;;;8379449;28;20312;-73
2023/01/22 17:14:19;;;;;;;;;;;2.10;99.90;;;;;;8388861;28;19928;-73
2023/01/22 17:18:21;;;;;;;;;;;2.10;99.90;;;;;;8376727;28;20420;-73
2023/01/22 17:22:23;;;;;;;;;;;2.10;99.90;;;;;;8359822;28;19935;-74
2023/01/22 17:26:25;;;;;;;;;;;2.10;99.90;;;;;;8374897;28;20299;-73
2023/01/22 17:30:27;;;;;;;;;;;2.10;99.90;;;;;;8363877;28;19972;-73
2023/01/22 17:34:28;;;;;;;;;;;2.10;99.90;;;;;;8381393;28;19928;-73
2023/01/22 17:48:37;;;;;;;;;;;2.10;99.90;;;;;;8372847;28;20006;-73
2023/01/22 17:52:38;;;;;;;;;;;2.10;99.90;;;;;;8352737;28;20039;-72
2023/01/22 17:56:44;;;;;;;;;;;2.10;99.90;;;;;;8350900;28;20067;-73
2023/01/22 18:00:45;;;;;;;;;;;2.10;99.90;;;;;;8372863;28;19931;-73
2023/01/22 18:04:47;;;;;;;;;;;2.10;99.90;;;;;;8381857;28;19970;-73
2023/01/22 18:08:49;;;;;;;;;;;2.10;99.90;;;;;;8357688;28;19932;-73
2023/01/22 18:12:50;;;;;;;;;;;2.10;99.90;;;;;;8365059;28;20467;-73
2023/01/22 18:16:53;;;;;;;;;;;2.10;99.90;;;;;;8369821;28;19955;-72
2023/01/22 18:20:54;;;;;;;;;;;2.10;99.90;;;;;;8357374;28;20268;-73
2023/01/22 18:24:57;;;;;;;;;;;2.10;99.90;;;;;;8390940;28;19940;-73
2023/01/22 18:28:59;;;;;;;;;;;2.10;99.90;;;;;;8370086;28;19936;-73
2023/01/22 18:33:01;;;;;;;;;;;2.20;99.90;;;;;;8345665;28;20082;-73
2023/01/22 18:37:02;;;;;;;;;;;2.10;99.90;;;;;;8377886;28;19939;-73
2023/01/22 18:41:09;;;;;;;;;;;2.20;99.90;;;;;;8364677;28;19935;-72
2023/01/22 18:45:10;;;;;;;;;;;2.20;99.90;;;;;;8370170;28;19936;-73
2023/01/22 18:49:14;;;;;;;;;;;2.20;99.90;;;;;;8367461;28;19932;-72
2023/01/22 18:53:17;;;;;;;;;;;2.20;99.90;;;;;;8368926;28;20359;-72
2023/01/22 18:57:19;;;;;;;;;;;2.20;99.90;;;;;;8372777;28;20408;-73
2023/01/22 19:01:22;;;;;;;;;;;2.20;99.90;;;;;;8367302;28;24198;-72
2023/01/22 19:05:25;;;;;;;;;;;2.20;99.90;;;;;;8395524;28;19935;-72
2023/01/22 19:09:27;;;;;;;;;;;2.20;99.90;;;;;;8374734;28;19934;-72
2023/01/22 19:13:29;;;;;;;;;;;2.20;99.90;;;;;;8372298;28;19932;-73
2023/01/22 19:17:31;;;;;;;;;;;2.20;99.90;;;;;;8387745;28;20019;-73
2023/01/22 19:21:33;;;;;;;;;;;2.20;99.90;;;;;;8360170;28;20015;-73
2023/01/22 19:25:34;;;;;;;;;;;2.20;99.90;;;;;;8371283;28;19925;-73
2023/01/22 19:29:36;;;;;;;;;;;2.20;99.90;;;;;;8380728;28;19939;-73
2023/01/22 19:33:38;;;;;;;;;;;2.20;99.90;;;;;;8346661;28;19951;-73
2023/01/22 19:37:39;;;;;;;;;;;2.20;99.90;;;;;;8364945;28;19968;-73
2023/01/22 19:41:41;;;;;;;;;;;2.20;99.90;;;;;;8367465;28;20349;-73
2023/01/22 19:45:43;;;;;;;;;;;2.20;99.90;;;;;;8367865;28;20180;-72
2023/01/22 19:49:45;;;;;;;;;;;2.20;99.90;;;;;;8365223;28;19925;-73
2023/01/22 19:53:47;;;;;;;;;;;2.20;99.90;;;;;;8350913;28;20007;-73
2023/01/22 20:02:52;;;;;;;;;;;2.20;99.90;;;;;;8364580;28;19924;-73
2023/01/22 20:06:57;;;;;;;;;;;2.20;99.90;;;;;;8353913;28;20355;-73
2023/01/22 20:10:59;;;;;;;;;;;2.20;99.90;;;;;;8367685;28;20458;-73
2023/01/22 20:15:01;;;;;;;;;;;2.20;99.90;;;;;;8347562;28;19935;-73
2023/01/22 20:19:03;;;;;;;;;;;2.20;99.90;;;;;;8382244;28;19940;-73
2023/01/22 20:23:04;;;;;;;;;;;2.20;99.90;;;;;;8363356;28;20396;-73
2023/01/22 20:27:07;;;;;;;;;;;2.10;99.90;;;;;;8366531;28;19935;-73
2023/01/22 20:31:13;;;;;;;;;;;2.20;99.90;;;;;;8349275;28;20364;-73
2023/01/22 20:35:17;;;;;;;;;;;2.20;99.90;;;;;;8363086;28;19993;-73
2023/01/22 20:39:19;;;;;;;;;;;2.20;99.90;;;;;;8346156;28;19955;-73
2023/01/22 20:43:21;;;;;;;;;;;2.20;99.90;;;;;;8359487;28;19925;-73
2023/01/22 20:47:23;;;;;;;;;;;2.20;99.90;;;;;;8341045;28;19933;-72
2023/01/22 20:51:26;;;;;;;;;;;2.20;99.90;;;;;;8366738;28;20027;-72
2023/01/22 20:55:28;;;;;;;;;;;2.20;99.90;;;;;;8360389;28;19974;-72
2023/01/22 20:59:29;;;;;;;;;;;2.20;99.90;;;;;;8372730;28;19932;-73
2023/01/22 21:03:31;;;;;;;;;;;2.20;99.90;;;;;;8362503;28;19928;-72
2023/01/22 21:07:33;;;;;;;;;;;2.20;99.90;;;;;;8364635;28;19991;-73
2023/01/22 21:11:36;;;;;;;;;;;2.20;99.90;;;;;;8374946;28;19925;-73
2023/01/22 21:15:37;;;;;;;;;;;2.20;99.90;;;;;;8367554;28;20283;-72
2023/01/22 21:19:39;;;;;;;;;;;2.20;99.90;;;;;;8359328;28;20028;-72
2023/01/22 21:23:45;;;;;;;;;;;2.30;99.90;;;;;;8349888;28;19932;-73
2023/01/22 21:27:46;;;;;;;;;;;2.30;99.90;;;;;;8382034;28;19925;-73
2023/01/22 21:31:51;;;;;;;;;;;2.30;99.90;;;;;;8371674;28;20334;-72
2023/01/22 21:35:53;;;;;;;;;;;2.30;99.90;;;;;;8363711;28;19948;-73
2023/01/22 21:39:54;;;;;;;;;;;2.30;99.90;;;;;;8368592;28;19967;-73
2023/01/22 21:48:16;;;;;;;;;;;2.30;99.90;;;;;;8364037;28;20292;-73
2023/01/22 21:52:18;;;;;;;;;;;2.30;99.90;;;;;;8358160;28;20027;-73
2023/01/22 21:56:20;;;;;;;;;;;2.30;99.90;;;;;;8365097;28;20415;-73
2023/01/22 22:00:22;;;;;;;;;;;2.30;99.90;;;;;;8362918;28;20020;-73
2023/01/22 22:04:25;;;;;;;;;;;2.30;99.90;;;;;;8384983;28;19925;-73
2023/01/22 22:08:27;;;;;;;;;;;2.30;99.90;;;;;;8377932;28;19998;-73
2023/01/22 22:12:30;;;;;;;;;;;2.30;99.90;;;;;;8383803;28;19940;-73
2023/01/22 22:16:32;;;;;;;;;;;2.30;99.90;;;;;;8392996;28;20358;-73
2023/01/22 22:20:35;;;;;;;;;;;2.30;99.90;;;;;;8396689;28;20042;-73
2023/01/22 22:24:36;;;;;;;;;;;2.30;99.90;;;;;;8401181;28;19924;-73
2023/01/22 22:28:38;;;;;;;;;;;2.30;99.90;;;;;;8389071;28;20007;-73
2023/01/22 22:32:40;;;;;;;;;;;2.30;99.90;;;;;;8405030;28;20373;-73
2023/01/22 22:36:41;;;;;;;;;;;2.30;99.90;;;;;;8399799;28;20392;-73
2023/01/22 23:01:03;;;;;;;;;;;2.30;99.90;;;;;;8375869;28;19923;-73
2023/01/22 23:05:05;;;;;;;;;;;2.30;99.90;;;;;;8388630;28;19929;-73
2023/01/22 23:09:08;;;;;;;;;;;2.30;99.90;;;;;;8396908;28;19955;-72
2023/01/22 23:13:11;;;;;;;;;;;2.30;99.90;;;;;;8398861;28;19928;-73
2023/01/22 23:17:12;;;;;;;;;;;2.30;99.90;;;;;;8399512;28;19924;-72
2023/01/22 23:21:18;;;;;;;;;;;2.30;99.90;;;;;;8398275;28;20270;-72
2023/01/22 23:25:20;;;;;;;;;;;2.30;99.90;;;;;;8378816;28;20367;-72
2023/01/22 23:29:23;;;;;;;;;;;2.30;99.90;;;;;;8407319;28;20271;-73
2023/01/22 23:33:24;;;;;;;;;;;2.30;99.90;;;;;;8393890;28;19934;-72
2023/01/22 23:37:26;;;;;;;;;;;2.30;99.90;;;;;;8399681;28;20330;-73
2023/01/22 23:41:28;;;;;;;;;;;2.30;99.90;;;;;;8409267;28;19931;-73
2023/01/22 23:45:29;;;;;;;;;;;2.30;99.90;;;;;;8386686;28;20416;-72
2023/01/22 23:49:31;;;;;;;;;;;2.30;99.90;;;;;;8375389;28;20328;-72
2023/01/22 23:53:39;;;;;;;;;;;2.30;99.90;;;;;;8384479;28;20379;-73
2023/01/22 23:57:41;;;;;;;;;;;2.30;99.90;;;;;;8375504;28;19924;-72
